Archival Weather

Republic

Farmingdale, New York (KFRG)

Report from: Thursday, January 25, 2024 10:58 AM EST
Current time: Monday, June 17, 2024 4:02 AM EDT

Current weather – Weather history – Daily summaries
Weather forecast

Present weatherMist
Temperature12.2°C (54.0°F)
Dew point11.7°C (53.1°F)
Winds 4 kts (2.1 m/s, 4.6 mph) West-Southwest (250°)
Visibility3 mi. (4.8 km)
Clouds Ceiling: Broken clouds 400 ft. (122 m)
Broken clouds 1,800 ft. (549 m)
Overcast 2,700 ft. (823 m)
Altimeter30.13 in.Hg (1020 mB)
Relative humidity97 %
Density altitude-380 ft. (-116 m)
Remarks Automated weather observing station with precipitation discriminator
Flight conditions Low Instrument Meteorological Conditions
Raw dataKFRG 251558Z 25004KT 3SM BR BKN004 BKN018 OVC027 12/12 A3013 RMK AO2 T01220117
An error has occurred. This application may no longer respond until reloaded. Reload 🗙